Pathein, Burma
Current Conditions -  °F | °C
As of 7:30 PM on Thursday 23 Oct 2014 (Local Time) from VYYY Reporting Station
Few Clouds Few Clouds  
Wind Chill: 81°   Ceiling: Unl
Heat Index: 88°   Visibility: 4mi
Dew Point: 79°   Wind: 3mph
Humidity: 94%   Direction: 240°WSW
Pressure: 29.88"   Gusts: NA
Location:  16.78°N, 94.73°E
Report Text: VYYY 231330Z 24003KT 6000 FEW018 FEW025CB 27/26 Q1012
Loading
Personal Weather Stations






























Interactive Weather Map
Tropical Storm Tracking
New forecast layout! Learn more

10-Day Weather Forecast

Advertisements
Track Severe Weather on mobile